createdAt,value
2024-02-14T00:00:59.873Z,21.7
2024-02-14T00:06:39.215Z,21.7
2024-02-14T00:12:02.792Z,21.6
2024-02-14T00:22:34.742Z,21.6
2024-02-14T00:28:13.880Z,21.6
2024-02-14T00:33:39.501Z,21.6
2024-02-14T00:39:19.647Z,21.6
2024-02-14T00:44:27.205Z,21.6
2024-02-14T00:50:08.977Z,21.5
2024-02-14T00:55:47.718Z,21.5
2024-02-14T01:01:27.097Z,21.5
2024-02-14T01:07:06.809Z,21.5
2024-02-14T01:12:46.293Z,21.4
2024-02-14T01:18:09.966Z,21.4
2024-02-14T08:11:21.817Z,20.6
2024-02-14T08:16:47.130Z,20.6
2024-02-14T08:22:18.641Z,20.6
2024-02-14T08:27:57.916Z,20.6
2024-02-14T08:33:37.900Z,20.6
2024-02-14T08:39:24.504Z,20.6
2024-02-14T08:45:04.633Z,20.6
2024-02-14T08:50:49.321Z,20.6
2024-02-14T08:56:32.946Z,20.6
2024-02-14T09:02:27.884Z,20.6
2024-02-14T09:08:08.120Z,20.6
2024-02-14T09:13:47.244Z,20.6
2024-02-14T09:19:27.751Z,20.6
2024-02-14T09:25:08.371Z,20.6
2024-02-14T09:31:01.166Z,20.5
2024-02-14T09:36:27.570Z,20.5
2024-02-14T09:42:06.871Z,20.5
2024-02-14T09:47:50.504Z,20.5
2024-02-14T09:53:31.014Z,20.5
2024-02-14T09:59:11.086Z,20.4
2024-02-14T10:04:50.946Z,20.4
2024-02-14T10:10:43.257Z,20.4
2024-02-14T10:16:07.926Z,20.4
2024-02-14T10:21:50.606Z,20.4
2024-02-14T10:27:30.173Z,20.4
2024-02-14T10:33:24.997Z,20.4
2024-02-14T10:39:09.057Z,20.4
2024-02-14T10:44:50.837Z,20.4
2024-02-14T10:50:31.585Z,20.4
2024-02-14T10:56:10.311Z,20.4
2024-02-14T11:01:49.462Z,20.4
2024-02-14T11:07:15.654Z,20.4
2024-02-14T11:12:56.322Z,20.4
2024-02-14T11:18:35.729Z,20.4
2024-02-14T11:24:17.761Z,20.4
2024-02-14T11:30:11.693Z,20.4
2024-02-14T11:35:52.592Z,20.4
2024-02-14T11:41:32.168Z,20.4
2024-02-14T11:47:13.529Z,20.3
2024-02-14T11:52:56.138Z,20.4
2024-02-14T11:58:35.575Z,20.4
2024-02-14T12:04:16.163Z,20.3
2024-02-14T12:09:57.023Z,20.3
2024-02-14T12:15:36.447Z,20.3
2024-02-14T12:21:16.863Z,20.3
2024-02-14T12:26:56.302Z,20.3
2024-02-14T12:32:40.272Z,20.3
2024-02-14T12:38:23.090Z,20.3
2024-02-14T12:44:02.160Z,20.3
2024-02-14T12:49:42.039Z,20.3
2024-02-14T12:55:20.904Z,20.3
2024-02-14T13:01:00.145Z,20.3
2024-02-14T13:06:40.228Z,20.3
2024-02-14T13:12:19.925Z,20.3
2024-02-14T13:17:59.614Z,20.3
2024-02-14T13:23:40.309Z,20.3
2024-02-14T13:29:02.961Z,20.3
2024-02-14T13:34:43.674Z,20.3
2024-02-14T13:40:22.611Z,20.3
2024-02-14T13:46:04.165Z,20.3
2024-02-14T13:51:46.494Z,20.3
2024-02-14T13:57:26.246Z,20.3
2024-02-14T14:03:04.250Z,20.3
2024-02-14T14:09:00.285Z,20.3
2024-02-14T14:14:38.950Z,20.3
2024-02-14T14:20:23.207Z,20.3
2024-02-14T14:26:04.508Z,20.3
2024-02-14T14:31:47.887Z,20.3
2024-02-14T14:37:30.861Z,20.3
2024-02-14T14:43:13.258Z,20.3
2024-02-14T14:48:39.866Z,20.3
2024-02-14T14:54:22.152Z,20.3
2024-02-14T15:00:05.500Z,20.3
2024-02-14T15:05:45.424Z,20.3
2024-02-14T15:11:11.279Z,20.3
2024-02-14T15:16:52.448Z,20.3
2024-02-14T15:22:36.044Z,20.2
2024-02-14T15:28:15.037Z,20.2
2024-02-14T15:33:54.772Z,20.2
2024-02-14T15:39:34.809Z,20.1
2024-02-14T15:45:13.228Z,20.1
2024-02-14T15:56:01.863Z,20.1
2024-02-14T16:01:40.523Z,20.1
2024-02-14T16:07:20.833Z,20.1
2024-02-14T16:12:59.200Z,20.1
2024-02-14T16:18:39.489Z,20.2
2024-02-14T16:24:35.036Z,20.3
2024-02-14T16:30:13.781Z,20.3
2024-02-14T16:35:54.069Z,20.3
2024-02-14T16:41:48.011Z,20.3
2024-02-14T16:47:30.111Z,20.4
2024-02-14T16:53:13.107Z,20.4
2024-02-14T16:58:55.490Z,20.5
2024-02-14T17:04:31.749Z,20.5
2024-02-14T17:10:14.200Z,20.6
2024-02-14T17:15:41.527Z,20.7
2024-02-14T17:21:22.258Z,20.8
2024-02-14T17:27:10.169Z,20.8
2024-02-14T17:33:01.861Z,20.8
2024-02-14T17:38:42.636Z,20.9
2024-02-14T17:44:05.290Z,20.9
2024-02-14T17:49:45.141Z,20.9
2024-02-14T17:55:24.291Z,20.9
2024-02-14T18:01:03.188Z,21
2024-02-14T18:06:29.521Z,21.1
2024-02-14T18:12:11.436Z,21.1
2024-02-14T18:23:13.429Z,21.2
2024-02-14T18:28:53.987Z,21.2
2024-02-14T18:34:20.773Z,21.3
2024-02-14T18:40:00.257Z,21.3
2024-02-14T18:45:38.628Z,21.3
2024-02-14T18:51:18.130Z,21.3
2024-02-14T18:56:56.817Z,21.4
2024-02-14T19:02:35.721Z,21.4
2024-02-14T19:08:17.124Z,21.4
2024-02-14T19:13:55.577Z,21.4
2024-02-14T19:19:48.889Z,21.4
2024-02-14T19:25:27.823Z,21.5
2024-02-14T19:31:07.022Z,21.5
